Time;durP1;ratioP1;P1;durP2;ratioP2;P2;SDS_P1;SDS_P2;PMS_P1;PMS_P2;Temp;Humidity;BMP_temperature;BMP_pressure;BME280_temperature;BME280_humidity;BME280_pressure;Samples;Min_cycle;Max_cycle;Signal;HPM_P1;HPM_P2
2022/07/02 00:01:27;;;;;;;6.30;1.20;;;;;;;;;;5031006;28;20249;-31
2022/07/02 00:03:57;;;;;;;1.67;1.00;;;;;;;;;;5018860;28;20210;-29
2022/07/02 00:06:27;;;;;;;5.90;1.40;;;;;;;;;;5018948;28;20601;-30
2022/07/02 00:08:55;;;;;;;1.60;1.20;;;;;;;;;;5030859;28;20195;-32
2022/07/02 00:11:23;;;;;;;0.90;0.90;;;;;;;;;;5025846;28;20222;-29
2022/07/02 00:13:51;;;;;;;1.97;0.87;;;;;;;;;;5021059;28;20211;-28
2022/07/02 00:16:19;;;;;;;2.33;1.27;;;;;;;;;;5030931;28;20227;-31
2022/07/02 00:18:46;;;;;;;1.10;1.00;;;;;;;;;;5024822;28;20237;-29
2022/07/02 00:21:14;;;;;;;1.37;1.00;;;;;;;;;;5030618;28;20216;-27
2022/07/02 00:23:41;;;;;;;2.43;0.90;;;;;;;;;;5030696;28;20226;-29
2022/07/02 00:26:09;;;;;;;0.90;0.90;;;;;;;;;;5024385;28;20534;-31
2022/07/02 00:28:40;;;;;;;2.93;1.30;;;;;;;;;;5019425;28;20657;-30
2022/07/02 00:31:07;;;;;;;1.53;1.00;;;;;;;;;;5030807;28;20289;-29
2022/07/02 00:33:36;;;;;;;0.87;0.87;;;;;;;;;;5023009;28;20206;-32
2022/07/02 00:36:03;;;;;;;1.30;1.20;;;;;;;;;;5022977;28;20234;-32
2022/07/02 00:38:30;;;;;;;1.63;1.10;;;;;;;;;;5030527;28;20206;-32
2022/07/02 00:40:59;;;;;;;1.00;1.00;;;;;;;;;;5026444;28;20210;-29
2022/07/02 00:43:26;;;;;;;1.00;1.00;;;;;;;;;;5026356;28;20256;-28
2022/07/02 00:45:54;;;;;;;0.83;0.83;;;;;;;;;;5030556;28;20199;-31
2022/07/02 00:48:21;;;;;;;0.80;0.80;;;;;;;;;;5028739;28;20210;-30
2022/07/02 00:50:50;;;;;;;0.90;0.90;;;;;;;;;;5015389;28;20214;-29
2022/07/02 00:53:17;;;;;;;1.27;1.27;;;;;;;;;;5030183;28;20202;-31
2022/07/02 00:55:45;;;;;;;1.20;1.20;;;;;;;;;;5030526;28;20206;-28
2022/07/02 00:58:12;;;;;;;1.17;1.00;;;;;;;;;;5021754;28;20207;-29
2022/07/02 01:00:39;;;;;;;1.20;1.10;;;;;;;;;;5019049;28;20580;-30
2022/07/02 01:03:07;;;;;;;1.00;1.00;;;;;;;;;;5015078;28;20223;-28
2022/07/02 01:05:34;;;;;;;2.93;1.10;;;;;;;;;;5014651;28;20559;-29
2022/07/02 01:10:49;;;;;;;4.70;1.10;;;;;;;;;;4998185;28;20215;-30
2022/07/02 01:13:17;;;;;;;1.03;1.00;;;;;;;;;;5013918;28;20560;-28
2022/07/02 01:15:44;;;;;;;1.40;1.13;;;;;;;;;;5027865;28;20496;-31
2022/07/02 01:18:17;;;;;;;1.77;1.23;;;;;;;;;;5027947;28;20206;-28
2022/07/02 01:20:44;;;;;;;1.00;1.00;;;;;;;;;;5030007;28;20218;-26
2022/07/02 01:23:13;;;;;;;0.87;0.87;;;;;;;;;;5030195;28;20226;-31
2022/07/02 01:25:40;;;;;;;3.83;1.30;;;;;;;;;;5030181;28;20268;-27
2022/07/02 01:28:07;;;;;;;1.67;0.90;;;;;;;;;;5022181;28;20567;-27
2022/07/02 01:30:34;;;;;;;0.93;0.93;;;;;;;;;;5030393;28;20209;-28
2022/07/02 01:33:02;;;;;;;3.40;1.20;;;;;;;;;;5017903;28;20198;-30
2022/07/02 01:35:29;;;;;;;1.80;1.00;;;;;;;;;;5028974;28;20198;-26
2022/07/02 01:37:57;;;;;;;0.80;0.80;;;;;;;;;;5030227;28;20214;-26
2022/07/02 01:40:26;;;;;;;0.90;0.90;;;;;;;;;;5027778;28;20301;-29
2022/07/02 01:42:56;;;;;;;1.43;1.20;;;;;;;;;;5021846;28;20238;-30
2022/07/02 01:45:23;;;;;;;1.07;1.00;;;;;;;;;;5030189;28;20213;-31
2022/07/02 01:47:50;;;;;;;1.57;0.80;;;;;;;;;;5028119;28;20227;-27
2022/07/02 01:50:17;;;;;;;1.40;1.00;;;;;;;;;;5019504;28;20215;-26
2022/07/02 01:52:45;;;;;;;0.80;0.80;;;;;;;;;;5027654;28;20209;-29
2022/07/02 01:55:12;;;;;;;1.50;1.00;;;;;;;;;;5030245;28;20210;-29
2022/07/02 01:57:40;;;;;;;2.07;1.10;;;;;;;;;;5026479;28;20238;-28
2022/07/02 02:00:09;;;;;;;1.90;0.90;;;;;;;;;;5024233;28;20240;-28
2022/07/02 02:02:36;;;;;;;2.67;1.00;;;;;;;;;;5030313;28;20258;-27
2022/07/02 02:05:04;;;;;;;1.33;1.10;;;;;;;;;;5022772;28;20214;-28
2022/07/02 02:07:31;;;;;;;3.03;1.00;;;;;;;;;;5032250;28;20218;-28
2022/07/02 02:09:58;;;;;;;1.53;1.07;;;;;;;;;;5033853;28;20206;-32
2022/07/02 02:12:25;;;;;;;0.90;0.90;;;;;;;;;;5023854;28;20646;-28
2022/07/02 02:14:54;;;;;;;2.43;0.80;;;;;;;;;;5034190;28;20206;-27
2022/07/02 02:17:21;;;;;;;1.23;0.73;;;;;;;;;;5036819;28;20223;-28
2022/07/02 02:19:48;;;;;;;2.23;0.70;;;;;;;;;;5017747;28;20297;-31
2022/07/02 02:22:16;;;;;;;2.13;0.70;;;;;;;;;;5032891;28;20254;-30
2022/07/02 02:24:43;;;;;;;4.43;1.73;;;;;;;;;;5032987;28;20203;-28
2022/07/02 02:27:10;;;;;;;2.67;0.90;;;;;;;;;;5033688;28;20226;-26
2022/07/02 02:29:37;;;;;;;2.40;0.90;;;;;;;;;;5023872;28;20213;-30
2022/07/02 02:32:06;;;;;;;0.90;0.90;;;;;;;;;;5032711;28;20204;-31
2022/07/02 02:34:33;;;;;;;3.17;0.80;;;;;;;;;;5019033;28;20218;-32
2022/07/02 02:37:00;;;;;;;0.70;0.70;;;;;;;;;;5031545;28;20445;-30
2022/07/02 02:39:27;;;;;;;2.90;0.90;;;;;;;;;;5032722;28;20214;-32
2022/07/02 02:41:55;;;;;;;0.80;0.80;;;;;;;;;;5033013;28;20202;-31
2022/07/02 02:44:22;;;;;;;3.30;0.87;;;;;;;;;;5024033;28;20236;-30
2022/07/02 02:46:49;;;;;;;1.40;0.70;;;;;;;;;;5030880;28;20227;-26
2022/07/02 02:49:18;;;;;;;0.90;0.90;;;;;;;;;;5028188;28;20212;-30
2022/07/02 02:51:45;;;;;;;0.83;0.50;;;;;;;;;;5031818;28;20213;-30
2022/07/02 02:54:12;;;;;;;4.83;0.73;;;;;;;;;;5032844;28;20205;-32
2022/07/02 02:56:39;;;;;;;0.83;0.80;;;;;;;;;;5024205;28;20227;-32
2022/07/02 02:59:06;;;;;;;0.80;0.70;;;;;;;;;;5032575;28;20207;-33
2022/07/02 03:04:01;;;;;;;1.33;0.60;;;;;;;;;;5024830;28;20317;-35
2022/07/02 03:06:30;;;;;;;0.80;0.80;;;;;;;;;;5031676;28;20611;-37
2022/07/02 03:08:57;;;;;;;2.07;0.90;;;;;;;;;;5031330;28;20213;-35
2022/07/02 03:11:24;;;;;;;4.40;1.00;;;;;;;;;;5031888;28;20293;-36
2022/07/02 03:13:51;;;;;;;1.20;0.90;;;;;;;;;;5022545;28;20203;-33
2022/07/02 03:16:18;;;;;;;0.70;0.70;;;;;;;;;;5031461;28;20238;-37
2022/07/02 03:18:46;;;;;;;1.30;0.80;;;;;;;;;;5020896;28;20397;-32
2022/07/02 03:21:13;;;;;;;0.80;0.80;;;;;;;;;;5023947;28;20202;-35
2022/07/02 03:23:41;;;;;;;2.43;0.90;;;;;;;;;;5030971;28;20227;-39
2022/07/02 03:26:09;;;;;;;3.20;0.90;;;;;;;;;;5031955;28;20222;-36
2022/07/02 03:28:36;;;;;;;1.10;1.00;;;;;;;;;;5020536;28;20213;-37
2022/07/02 03:31:03;;;;;;;0.87;0.80;;;;;;;;;;5031043;28;20203;-38
2022/07/02 03:33:30;;;;;;;1.00;0.77;;;;;;;;;;5022743;28;20211;-34
2022/07/02 03:35:57;;;;;;;2.67;0.70;;;;;;;;;;5015434;28;20515;-34
2022/07/02 03:38:24;;;;;;;0.80;0.80;;;;;;;;;;5031473;28;20213;-35
2022/07/02 03:40:53;;;;;;;1.53;0.80;;;;;;;;;;5032566;28;20213;-33
2022/07/02 03:43:20;;;;;;;1.83;1.20;;;;;;;;;;5027303;28;20230;-34
2022/07/02 03:45:47;;;;;;;2.20;1.20;;;;;;;;;;5032590;28;20676;-35
2022/07/02 03:48:14;;;;;;;1.77;1.20;;;;;;;;;;5027766;28;20207;-32
2022/07/02 03:50:42;;;;;;;2.93;1.60;;;;;;;;;;5030476;28;20211;-36
2022/07/02 03:53:09;;;;;;;2.47;1.20;;;;;;;;;;5033131;28;20203;-34
2022/07/02 03:55:36;;;;;;;4.77;1.40;;;;;;;;;;5033057;28;20218;-37
2022/07/02 03:58:05;;;;;;;1.80;1.30;;;;;;;;;;5021180;28;20230;-34
2022/07/02 04:00:32;;;;;;;3.97;1.30;;;;;;;;;;5029829;28;20218;-37
2022/07/02 04:02:59;;;;;;;1.20;1.17;;;;;;;;;;5030244;28;20237;-35
2022/07/02 04:05:27;;;;;;;1.63;1.53;;;;;;;;;;5022694;28;20222;-31
2022/07/02 04:07:54;;;;;;;1.47;1.07;;;;;;;;;;5032369;28;20242;-35
2022/07/02 04:10:21;;;;;;;2.43;1.33;;;;;;;;;;5033092;28;20210;-35
2022/07/02 04:12:48;;;;;;;1.30;1.20;;;;;;;;;;5019369;28;20208;-35
2022/07/02 04:15:16;;;;;;;1.30;1.20;;;;;;;;;;5022318;28;20210;-32
2022/07/02 04:17:43;;;;;;;1.97;1.23;;;;;;;;;;5027687;28;20240;-35
2022/07/02 04:20:11;;;;;;;1.97;1.10;;;;;;;;;;5019495;28;20206;-33
2022/07/02 04:22:38;;;;;;;3.00;1.10;;;;;;;;;;5032202;28;20203;-35
2022/07/02 04:25:06;;;;;;;2.43;1.20;;;;;;;;;;5032621;28;20206;-33
2022/07/02 04:27:33;;;;;;;1.73;1.27;;;;;;;;;;5027953;28;20227;-32
2022/07/02 04:30:00;;;;;;;3.23;1.10;;;;;;;;;;5021036;28;20211;-37
2022/07/02 04:32:29;;;;;;;1.53;1.07;;;;;;;;;;5031989;28;20575;-35
2022/07/02 04:34:56;;;;;;;2.13;0.97;;;;;;;;;;5016326;28;20203;-36
2022/07/02 04:37:23;;;;;;;4.63;1.30;;;;;;;;;;5027356;28;20587;-37
2022/07/02 04:39:50;;;;;;;3.40;1.00;;;;;;;;;;5032165;28;20210;-34
2022/07/02 04:42:17;;;;;;;1.50;1.23;;;;;;;;;;5029463;28;20202;-35
2022/07/02 04:44:44;;;;;;;3.60;1.20;;;;;;;;;;5031625;28;20231;-32
2022/07/02 04:47:11;;;;;;;1.57;1.20;;;;;;;;;;5032251;28;20222;-34
2022/07/02 04:49:40;;;;;;;1.40;1.30;;;;;;;;;;5018790;28;20222;-34
2022/07/02 04:52:07;;;;;;;2.40;1.00;;;;;;;;;;5024695;28;20218;-32
2022/07/02 04:54:34;;;;;;;1.67;1.10;;;;;;;;;;5031938;28;20206;-33
2022/07/02 04:57:01;;;;;;;1.00;1.00;;;;;;;;;;5032864;28;20233;-37
2022/07/02 04:59:29;;;;;;;2.10;0.97;;;;;;;;;;5026249;28;20301;-32
2022/07/02 05:01:56;;;;;;;3.37;1.27;;;;;;;;;;5031485;28;20199;-39
2022/07/02 05:04:23;;;;;;;2.10;1.20;;;;;;;;;;5023928;28;20223;-33
2022/07/02 05:06:51;;;;;;;1.77;1.40;;;;;;;;;;5024154;28;20230;-37
2022/07/02 05:09:19;;;;;;;1.07;0.97;;;;;;;;;;5032566;28;20221;-34
2022/07/02 05:11:46;;;;;;;1.07;1.07;;;;;;;;;;5032809;28;20217;-35
2022/07/02 05:14:18;;;;;;;3.27;1.27;;;;;;;;;;5029664;28;20803;-33
2022/07/02 05:16:45;;;;;;;1.00;1.00;;;;;;;;;;5032341;28;20227;-33
2022/07/02 05:19:13;;;;;;;2.73;1.20;;;;;;;;;;5021523;28;20221;-37
2022/07/02 05:21:42;;;;;;;2.43;1.10;;;;;;;;;;5029221;28;20210;-37
2022/07/02 05:24:10;;;;;;;1.43;1.33;;;;;;;;;;5031960;28;20282;-37
2022/07/02 05:26:37;;;;;;;1.90;1.30;;;;;;;;;;5025613;28;20298;-36
2022/07/02 05:29:05;;;;;;;2.30;1.30;;;;;;;;;;5031568;28;20213;-34
2022/07/02 05:31:32;;;;;;;2.00;1.30;;;;;;;;;;5031967;28;20209;-33
2022/07/02 05:33:59;;;;;;;1.00;1.00;;;;;;;;;;5020488;28;20210;-37
2022/07/02 05:36:26;;;;;;;3.50;1.10;;;;;;;;;;5020372;28;20231;-36
2022/07/02 05:38:53;;;;;;;2.03;1.20;;;;;;;;;;5031952;28;20202;-37
2022/07/02 05:41:21;;;;;;;3.27;1.37;;;;;;;;;;5032069;28;20209;-38
2022/07/02 05:43:49;;;;;;;4.47;1.33;;;;;;;;;;5025506;28;20222;-33
2022/07/02 05:46:16;;;;;;;1.03;1.03;;;;;;;;;;5035606;28;20320;-36
2022/07/02 05:48:43;;;;;;;0.90;0.90;;;;;;;;;;5027061;28;20212;-35
2022/07/02 05:51:10;;;;;;;1.30;1.20;;;;;;;;;;5022378;28;20241;-37
2022/07/02 05:53:37;;;;;;;2.20;1.20;;;;;;;;;;5035227;28;20252;-34
2022/07/02 05:56:05;;;;;;;1.53;1.30;;;;;;;;;;5032612;28;20260;-34
2022/07/02 05:58:34;;;;;;;2.43;1.20;;;;;;;;;;5027455;28;20211;-36
2022/07/02 06:01:01;;;;;;;2.43;1.10;;;;;;;;;;5035640;28;20245;-34
2022/07/02 06:03:28;;;;;;;5.57;1.13;;;;;;;;;;5027510;28;20322;-35
2022/07/02 06:08:40;;;;;;;2.73;1.00;;;;;;;;;;5035755;28;20197;-35
2022/07/02 06:11:08;;;;;;;1.38;0.93;;;;;;;;;;5030755;28;20214;-34
2022/07/02 06:13:36;;;;;;;1.10;0.90;;;;;;;;;;5027755;28;20230;-39
2022/07/02 06:16:03;;;;;;;0.88;0.88;;;;;;;;;;5035637;28;20260;-35
2022/07/02 06:18:31;;;;;;;2.28;0.90;;;;;;;;;;5030289;28;20301;-36
2022/07/02 06:20:58;;;;;;;1.75;1.05;;;;;;;;;;5021547;28;20210;-38
2022/07/02 06:23:25;;;;;;;0.80;0.80;;;;;;;;;;5035566;28;20241;-36
2022/07/02 06:25:52;;;;;;;0.95;0.80;;;;;;;;;;5036000;28;20213;-37
2022/07/02 06:28:20;;;;;;;3.40;0.70;;;;;;;;;;5032466;28;20210;-34
2022/07/02 06:30:49;;;;;;;2.47;0.98;;;;;;;;;;5034303;28;20210;-33
2022/07/02 06:33:16;;;;;;;1.15;0.60;;;;;;;;;;5031934;28;20207;-34
2022/07/02 06:35:43;;;;;;;0.73;0.70;;;;;;;;;;5027023;28;20205;-36
2022/07/02 06:38:11;;;;;;;0.98;0.65;;;;;;;;;;5034985;28;20215;-35
2022/07/02 06:40:38;;;;;;;0.65;0.65;;;;;;;;;;5035045;28;20216;-37
2022/07/02 06:43:06;;;;;;;1.50;0.60;;;;;;;;;;5028068;28;20232;-34
2022/07/02 06:45:33;;;;;;;1.00;0.70;;;;;;;;;;5027703;28;20229;-36
2022/07/02 06:48:01;;;;;;;0.75;0.50;;;;;;;;;;5022943;28;20239;-37
2022/07/02 06:50:29;;;;;;;0.60;0.60;;;;;;;;;;5017165;28;20204;-39
2022/07/02 06:52:56;;;;;;;0.50;0.50;;;;;;;;;;5034135;28;20206;-36
2022/07/02 06:55:23;;;;;;;0.60;0.60;;;;;;;;;;5034724;28;20235;-34
2022/07/02 06:57:50;;;;;;;0.73;0.35;;;;;;;;;;5027489;28;20318;-35
2022/07/02 07:00:21;;;;;;;0.80;0.50;;;;;;;;;;5028389;28;20243;-35
2022/07/02 07:02:48;;;;;;;0.50;0.50;;;;;;;;;;5032352;28;20219;-35
2022/07/02 07:05:17;;;;;;;1.45;0.60;;;;;;;;;;5016548;28;20229;-37
2022/07/02 07:07:44;;;;;;;0.50;0.50;;;;;;;;;;5032263;28;20228;-36
2022/07/02 07:10:11;;;;;;;0.45;0.45;;;;;;;;;;5034895;28;20224;-34
2022/07/02 07:12:38;;;;;;;0.38;0.38;;;;;;;;;;5022362;28;20213;-37
2022/07/02 07:15:09;;;;;;;0.52;0.52;;;;;;;;;;5033725;28;20210;-35
2022/07/02 07:17:36;;;;;;;0.95;0.40;;;;;;;;;;5034225;28;20235;-38
2022/07/02 07:20:04;;;;;;;1.45;0.40;;;;;;;;;;5020853;28;20225;-37
2022/07/02 07:22:33;;;;;;;0.88;0.43;;;;;;;;;;5034254;28;20212;-37
2022/07/02 07:25:00;;;;;;;0.60;0.52;;;;;;;;;;5034514;28;20340;-35
2022/07/02 07:27:27;;;;;;;0.55;0.55;;;;;;;;;;5021424;28;20241;-34
2022/07/02 07:29:54;;;;;;;0.45;0.45;;;;;;;;;;5033251;28;20204;-34
2022/07/02 07:32:21;;;;;;;0.65;0.65;;;;;;;;;;5034256;28;20241;-37
2022/07/02 07:34:49;;;;;;;0.50;0.30;;;;;;;;;;5023920;28;20204;-36
2022/07/02 07:37:16;;;;;;;0.40;0.40;;;;;;;;;;5034154;28;20240;-34
2022/07/02 07:39:45;;;;;;;0.50;0.50;;;;;;;;;;5034208;28;20213;-35
2022/07/02 07:42:12;;;;;;;0.43;0.40;;;;;;;;;;5034314;28;20213;-37
2022/07/02 07:44:39;;;;;;;0.40;0.40;;;;;;;;;;5027927;28;20239;-36
2022/07/02 07:47:07;;;;;;;0.30;0.30;;;;;;;;;;5033304;28;20220;-38
2022/07/02 07:49:34;;;;;;;0.35;0.35;;;;;;;;;;5015063;28;20213;-37
2022/07/02 07:52:01;;;;;;;0.30;0.30;;;;;;;;;;5025360;28;20374;-34
2022/07/02 07:54:28;;;;;;;0.35;0.30;;;;;;;;;;5033680;28;20214;-37
2022/07/02 07:56:56;;;;;;;0.40;0.40;;;;;;;;;;5033457;28;20236;-36
2022/07/02 07:59:24;;;;;;;1.40;0.60;;;;;;;;;;5021417;28;20216;-35
2022/07/02 08:01:51;;;;;;;0.40;0.40;;;;;;;;;;5031446;28;20214;-36
2022/07/02 08:04:18;;;;;;;0.50;0.50;;;;;;;;;;5019398;28;20662;-35
2022/07/02 08:06:45;;;;;;;0.60;0.60;;;;;;;;;;5023690;28;20286;-35
2022/07/02 08:09:12;;;;;;;0.38;0.38;;;;;;;;;;5032227;28;20647;-36
2022/07/02 08:11:39;;;;;;;0.40;0.40;;;;;;;;;;5031738;28;20266;-35
2022/07/02 08:14:09;;;;;;;2.17;0.63;;;;;;;;;;5017336;28;20204;-36
2022/07/02 08:16:36;;;;;;;0.95;0.55;;;;;;;;;;5032636;28;20232;-39
2022/07/02 08:19:03;;;;;;;3.13;0.68;;;;;;;;;;5023787;28;20211;-36
2022/07/02 08:21:31;;;;;;;0.85;0.52;;;;;;;;;;5021826;28;20250;-37
2022/07/02 08:23:58;;;;;;;0.70;0.35;;;;;;;;;;5032883;28;20441;-35
2022/07/02 08:26:25;;;;;;;0.93;0.47;;;;;;;;;;5029033;28;20234;-34
2022/07/02 08:28:52;;;;;;;0.40;0.40;;;;;;;;;;5027437;28;20215;-32
2022/07/02 08:31:22;;;;;;;0.88;0.68;;;;;;;;;;5032347;28;20204;-35
2022/07/02 08:33:49;;;;;;;0.85;0.55;;;;;;;;;;5023138;28;20216;-34
2022/07/02 08:36:16;;;;;;;1.10;0.40;;;;;;;;;;5020377;28;20233;-37
2022/07/02 08:38:43;;;;;;;1.23;0.65;;;;;;;;;;5033322;28;20228;-37
2022/07/02 08:41:11;;;;;;;0.57;0.57;;;;;;;;;;5030708;28;20209;-35
2022/07/02 08:43:40;;;;;;;0.80;0.50;;;;;;;;;;5023384;28;20275;-34
2022/07/02 08:46:08;;;;;;;0.35;0.30;;;;;;;;;;5033432;28;20237;-36
2022/07/02 08:48:37;;;;;;;3.33;0.50;;;;;;;;;;5026406;28;20216;-36
2022/07/02 08:51:04;;;;;;;0.43;0.43;;;;;;;;;;5025852;28;20242;-38
2022/07/02 08:53:31;;;;;;;0.57;0.40;;;;;;;;;;5033095;28;20224;-35
2022/07/02 08:55:59;;;;;;;0.50;0.50;;;;;;;;;;5033227;28;20212;-34
2022/07/02 08:58:27;;;;;;;0.50;0.50;;;;;;;;;;5027746;28;20204;-37
2022/07/02 09:00:54;;;;;;;1.05;0.63;;;;;;;;;;5119051;22;20239;-36
2022/07/02 09:03:22;;;;;;;0.40;0.40;;;;;;;;;;5008637;28;20272;-37
2022/07/02 09:05:52;;;;;;;0.60;0.60;;;;;;;;;;5004868;28;20225;-33
2022/07/02 09:08:22;;;;;;;0.50;0.40;;;;;;;;;;5012556;28;20203;-34
2022/07/02 09:10:50;;;;;;;0.40;0.40;;;;;;;;;;5010685;28;20216;-33
2022/07/02 09:13:18;;;;;;;1.73;0.57;;;;;;;;;;5007763;28;20219;-32
2022/07/02 09:15:45;;;;;;;1.40;0.60;;;;;;;;;;5012998;28;20223;-36
2022/07/02 09:18:12;;;;;;;0.63;0.63;;;;;;;;;;5010479;28;20220;-39
2022/07/02 09:20:39;;;;;;;0.40;0.40;;;;;;;;;;5012308;28;20204;-34
2022/07/02 09:23:13;;;;;;;0.40;0.40;;;;;;;;;;5012969;28;20204;-31
2022/07/02 09:25:41;;;;;;;3.55;1.30;;;;;;;;;;5012982;28;20231;-35
2022/07/02 09:28:09;;;;;;;0.50;0.50;;;;;;;;;;5005050;28;20218;-36
2022/07/02 09:30:36;;;;;;;0.68;0.57;;;;;;;;;;5007086;28;20210;-36
2022/07/02 09:35:49;;;;;;;0.40;0.40;;;;;;;;;;5012704;28;20215;-35
2022/07/02 09:38:17;;;;;;;1.15;0.50;;;;;;;;;;5012994;28;20225;-32
2022/07/02 09:40:54;;;;;;;2.92;0.55;;;;;;;;;;5013598;28;20207;-34
2022/07/02 09:43:29;;;;;;;0.40;0.40;;;;;;;;;;5007923;28;20203;-36
2022/07/02 09:45:56;;;;;;;0.47;0.47;;;;;;;;;;5010318;28;20262;-34
2022/07/02 09:48:23;;;;;;;2.83;0.40;;;;;;;;;;5008377;28;20207;-36
2022/07/02 09:50:50;;;;;;;0.50;0.50;;;;;;;;;;4997184;28;20205;-28
2022/07/02 09:53:19;;;;;;;0.50;0.50;;;;;;;;;;5012959;28;20209;-32
2022/07/02 09:55:49;;;;;;;0.50;0.50;;;;;;;;;;5012574;28;20204;-37
2022/07/02 09:58:24;;;;;;;1.02;0.60;;;;;;;;;;5004309;28;20235;-36
2022/07/02 10:00:51;;;;;;;3.03;0.70;;;;;;;;;;5012474;28;20215;-38
2022/07/02 10:03:18;;;;;;;0.80;0.60;;;;;;;;;;5008196;28;20200;-37
2022/07/02 10:05:46;;;;;;;0.57;0.30;;;;;;;;;;5011720;28;20229;-38
2022/07/02 10:08:13;;;;;;;0.40;0.40;;;;;;;;;;5012808;28;20209;-39
2022/07/02 10:10:42;;;;;;;2.40;0.50;;;;;;;;;;5007940;28;20207;-33
2022/07/02 10:13:10;;;;;;;0.50;0.50;;;;;;;;;;5004231;28;20218;-41
2022/07/02 10:15:39;;;;;;;1.30;0.55;;;;;;;;;;5012262;28;20203;-34
2022/07/02 10:18:06;;;;;;;1.00;0.50;;;;;;;;;;5008906;28;20231;-37
2022/07/02 10:20:34;;;;;;;1.20;0.50;;;;;;;;;;5008665;28;20211;-39
2022/07/02 10:23:02;;;;;;;0.40;0.40;;;;;;;;;;5012488;28;20214;-37
2022/07/02 10:25:29;;;;;;;0.40;0.40;;;;;;;;;;5012289;28;20231;-33
2022/07/02 10:27:58;;;;;;;0.40;0.40;;;;;;;;;;5009085;28;20219;-35
2022/07/02 10:30:27;;;;;;;1.50;0.40;;;;;;;;;;5001286;28;20218;-35
2022/07/02 10:32:58;;;;;;;0.30;0.30;;;;;;;;;;5010863;28;20261;-33
2022/07/02 10:35:26;;;;;;;0.50;0.50;;;;;;;;;;5009010;28;20242;-35
2022/07/02 10:37:57;;;;;;;0.47;0.47;;;;;;;;;;5014365;28;20227;-38
2022/07/02 10:40:25;;;;;;;0.40;0.40;;;;;;;;;;5016332;28;20207;-36
2022/07/02 10:42:53;;;;;;;1.40;0.50;;;;;;;;;;5013359;28;20211;-29
2022/07/02 10:45:22;;;;;;;0.30;0.30;;;;;;;;;;5009895;28;20325;-32
2022/07/02 10:47:54;;;;;;;0.50;0.50;;;;;;;;;;5012000;28;20227;-38
2022/07/02 10:50:21;;;;;;;0.80;0.60;;;;;;;;;;5000842;28;20211;-39
2022/07/02 10:52:53;;;;;;;1.13;0.43;;;;;;;;;;5012676;28;20202;-39
2022/07/02 10:55:27;;;;;;;0.83;0.53;;;;;;;;;;5015622;28;20187;-33
2022/07/02 10:57:58;;;;;;;0.93;0.50;;;;;;;;;;4999079;28;20231;-32
2022/07/02 11:00:31;;;;;;;0.43;0.43;;;;;;;;;;5011014;28;20213;-39
2022/07/02 11:02:58;;;;;;;0.67;0.50;;;;;;;;;;5013499;28;20294;-38
2022/07/02 11:05:26;;;;;;;1.50;0.60;;;;;;;;;;4998373;28;20239;-32
2022/07/02 11:07:53;;;;;;;0.50;0.50;;;;;;;;;;5011861;28;20219;-33
2022/07/02 11:10:27;;;;;;;0.50;0.50;;;;;;;;;;5013250;28;20298;-35
2022/07/02 11:12:58;;;;;;;0.40;0.40;;;;;;;;;;5010865;28;20213;-34
2022/07/02 11:15:29;;;;;;;0.60;0.60;;;;;;;;;;5015104;28;20206;-38
2022/07/02 11:18:03;;;;;;;1.17;0.80;;;;;;;;;;5011325;28;20227;-34
2022/07/02 11:20:30;;;;;;;3.80;0.67;;;;;;;;;;5003533;28;20207;-35
2022/07/02 11:22:57;;;;;;;1.30;0.90;;;;;;;;;;5015054;28;20199;-37
2022/07/02 11:25:25;;;;;;;0.75;0.75;;;;;;;;;;5014737;28;20238;-34
2022/07/02 11:27:59;;;;;;;0.50;0.50;;;;;;;;;;5012093;28;20219;-40
2022/07/02 11:30:27;;;;;;;0.50;0.50;;;;;;;;;;5006840;28;20207;-34
2022/07/02 11:32:54;;;;;;;0.83;0.83;;;;;;;;;;5012292;28;20203;-33
2022/07/02 11:35:23;;;;;;;0.85;0.50;;;;;;;;;;5002018;28;20211;-35
2022/07/02 11:37:50;;;;;;;2.10;0.50;;;;;;;;;;5013544;28;20225;-36
2022/07/02 11:40:20;;;;;;;1.77;0.68;;;;;;;;;;5014900;28;20218;-32
2022/07/02 11:42:47;;;;;;;0.50;0.50;;;;;;;;;;5001437;28;20223;-40
2022/07/02 11:45:14;;;;;;;1.03;0.60;;;;;;;;;;5014241;28;20326;-35
2022/07/02 11:47:45;;;;;;;0.70;0.70;;;;;;;;;;5013632;28;20234;-34
2022/07/02 11:50:13;;;;;;;0.60;0.60;;;;;;;;;;5007597;28;20214;-37
2022/07/02 11:52:42;;;;;;;0.73;0.60;;;;;;;;;;5014199;28;20207;-30
2022/07/02 11:55:15;;;;;;;0.40;0.40;;;;;;;;;;5014520;28;20203;-35
2022/07/02 11:57:43;;;;;;;2.33;0.50;;;;;;;;;;5003914;28;20223;-32
2022/07/02 12:00:10;;;;;;;0.50;0.50;;;;;;;;;;5007470;28;20220;-34
2022/07/02 12:02:38;;;;;;;0.60;0.60;;;;;;;;;;5013699;28;20218;-33
2022/07/02 12:05:14;;;;;;;1.15;0.60;;;;;;;;;;4996061;28;20223;-30
2022/07/02 12:07:43;;;;;;;0.60;0.60;;;;;;;;;;5011622;28;20223;-38
2022/07/02 12:10:11;;;;;;;0.82;0.75;;;;;;;;;;5014597;28;20218;-36
2022/07/02 12:12:38;;;;;;;2.27;0.60;;;;;;;;;;5009271;28;20212;-36
2022/07/02 12:15:06;;;;;;;0.50;0.50;;;;;;;;;;5009360;28;20207;-36
2022/07/02 12:17:35;;;;;;;0.55;0.55;;;;;;;;;;5014328;28;20261;-35
2022/07/02 12:20:02;;;;;;;0.83;0.70;;;;;;;;;;5001982;28;20235;-31
2022/07/02 12:22:30;;;;;;;0.50;0.50;;;;;;;;;;5013658;28;20285;-35
2022/07/02 12:24:58;;;;;;;0.60;0.60;;;;;;;;;;5013795;28;20214;-32
2022/07/02 12:27:26;;;;;;;2.28;0.80;;;;;;;;;;5006897;28;20238;-34
2022/07/02 12:29:56;;;;;;;1.05;0.70;;;;;;;;;;5012769;28;20214;-36
2022/07/02 12:32:24;;;;;;;0.95;0.57;;;;;;;;;;5014065;28;20191;-34
2022/07/02 12:34:52;;;;;;;1.35;0.75;;;;;;;;;;5008096;28;20210;-33
2022/07/02 12:37:23;;;;;;;0.55;0.55;;;;;;;;;;5013389;28;20226;-30
2022/07/02 12:39:51;;;;;;;1.08;0.60;;;;;;;;;;5013496;28;20207;-37
2022/07/02 12:42:22;;;;;;;0.60;0.60;;;;;;;;;;4998429;28;20230;-35
2022/07/02 12:44:57;;;;;;;0.50;0.50;;;;;;;;;;5004183;28;20212;-37
2022/07/02 12:47:25;;;;;;;0.50;0.50;;;;;;;;;;5013530;28;20226;-40
2022/07/02 12:49:57;;;;;;;0.50;0.50;;;;;;;;;;5010349;28;20206;-39
2022/07/02 12:52:24;;;;;;;1.23;0.57;;;;;;;;;;5008660;28;20203;-33
2022/07/02 12:54:51;;;;;;;0.45;0.45;;;;;;;;;;5012338;28;20207;-35
2022/07/02 12:57:21;;;;;;;0.60;0.60;;;;;;;;;;5013881;28;20226;-30
2022/07/02 12:59:49;;;;;;;1.45;0.50;;;;;;;;;;5008064;28;20211;-35
2022/07/02 13:02:18;;;;;;;0.50;0.50;;;;;;;;;;5007236;28;20235;-35
2022/07/02 13:04:45;;;;;;;0.60;0.60;;;;;;;;;;5005339;28;20290;-36
2022/07/02 13:07:15;;;;;;;1.20;0.50;;;;;;;;;;5011692;28;20262;-32
2022/07/02 13:09:42;;;;;;;0.50;0.50;;;;;;;;;;5013152;28;20214;-39
2022/07/02 13:12:10;;;;;;;0.77;0.50;;;;;;;;;;4999997;28;20248;-34
2022/07/02 13:14:39;;;;;;;0.50;0.50;;;;;;;;;;5009850;28;20215;-37
2022/07/02 13:17:06;;;;;;;1.55;0.50;;;;;;;;;;5010672;28;20223;-33
2022/07/02 13:19:34;;;;;;;1.40;0.60;;;;;;;;;;5000472;28;20211;-33
2022/07/02 13:22:01;;;;;;;0.50;0.50;;;;;;;;;;5008691;28;20244;-30
2022/07/02 13:24:28;;;;;;;0.60;0.50;;;;;;;;;;5012889;28;20212;-32
2022/07/02 13:26:55;;;;;;;0.60;0.60;;;;;;;;;;5007591;28;20246;-37
2022/07/02 13:29:22;;;;;;;0.50;0.50;;;;;;;;;;5005256;28;20222;-34
2022/07/02 13:31:51;;;;;;;0.45;0.45;;;;;;;;;;5013257;28;20207;-39
2022/07/02 13:34:18;;;;;;;0.65;0.60;;;;;;;;;;5003997;28;20212;-34
2022/07/02 13:36:45;;;;;;;1.58;0.85;;;;;;;;;;5010658;28;20223;-34
2022/07/02 13:39:13;;;;;;;0.55;0.50;;;;;;;;;;5012809;28;20223;-34
2022/07/02 13:41:40;;;;;;;0.50;0.50;;;;;;;;;;5010141;28;20208;-38
2022/07/02 13:44:07;;;;;;;3.40;0.70;;;;;;;;;;5007546;28;20204;-37
2022/07/02 13:46:34;;;;;;;1.63;0.60;;;;;;;;;;5012516;28;20235;-33
2022/07/02 13:49:03;;;;;;;0.70;0.70;;;;;;;;;;5004247;28;20212;-32
2022/07/02 13:51:30;;;;;;;3.65;0.40;;;;;;;;;;5001947;28;20214;-33
2022/07/02 13:53:57;;;;;;;0.95;0.57;;;;;;;;;;5012532;28;20214;-31
2022/07/02 13:56:24;;;;;;;0.68;0.52;;;;;;;;;;5008427;28;20234;-30
2022/07/02 13:58:52;;;;;;;0.40;0.40;;;;;;;;;;5011624;28;20222;-31
2022/07/02 14:01:19;;;;;;;0.77;0.60;;;;;;;;;;5012772;28;20208;-36
2022/07/02 14:03:46;;;;;;;0.50;0.50;;;;;;;;;;5007707;28;20211;-34
2022/07/02 14:06:14;;;;;;;0.68;0.65;;;;;;;;;;5008488;28;20250;-37
2022/07/02 14:08:41;;;;;;;0.52;0.50;;;;;;;;;;5016336;28;20200;-29
2022/07/02 14:11:11;;;;;;;2.00;0.50;;;;;;;;;;5012224;28;20207;-36
2022/07/02 14:13:38;;;;;;;0.50;0.50;;;;;;;;;;5012679;28;20207;-36
2022/07/02 14:16:05;;;;;;;1.45;0.68;;;;;;;;;;5016606;28;20221;-36
2022/07/02 14:18:32;;;;;;;0.73;0.50;;;;;;;;;;5010308;28;20226;-37
2022/07/02 14:21:00;;;;;;;1.42;0.50;;;;;;;;;;5009054;28;20204;-32
2022/07/02 14:23:28;;;;;;;0.50;0.50;;;;;;;;;;5016085;28;20299;-34
2022/07/02 14:25:55;;;;;;;0.43;0.43;;;;;;;;;;5013003;28;20330;-33
2022/07/02 14:28:22;;;;;;;0.50;0.45;;;;;;;;;;4997507;28;20468;-38
2022/07/02 14:30:50;;;;;;;0.63;0.60;;;;;;;;;;5014378;28;20207;-39
2022/07/02 14:33:17;;;;;;;0.93;0.32;;;;;;;;;;5009787;28;20208;-35
2022/07/02 14:35:45;;;;;;;0.50;0.50;;;;;;;;;;5005220;28;20211;-34
2022/07/02 14:38:13;;;;;;;0.50;0.50;;;;;;;;;;5015412;28;20204;-34
2022/07/02 14:40:42;;;;;;;1.08;0.60;;;;;;;;;;5016131;28;20214;-33
2022/07/02 14:43:09;;;;;;;0.60;0.60;;;;;;;;;;5012392;28;20209;-37
2022/07/02 14:45:36;;;;;;;1.45;0.40;;;;;;;;;;5000117;28;20224;-34
2022/07/02 14:48:03;;;;;;;0.52;0.50;;;;;;;;;;5010658;28;20240;-32
2022/07/02 14:50:31;;;;;;;0.50;0.50;;;;;;;;;;4998179;28;20217;-36
2022/07/02 14:52:59;;;;;;;0.75;0.60;;;;;;;;;;5015198;28;20219;-30
2022/07/02 14:55:26;;;;;;;0.50;0.50;;;;;;;;;;5015420;28;20316;-31
2022/07/02 14:57:54;;;;;;;0.82;0.55;;;;;;;;;;5007958;28;20236;-33